sensor_id;sensor_type;location;lat;lon;timestamp;P1;durP1;ratioP1;P2;durP2;ratioP2
16731;SDS011;8484;50.904;9.192;2023-04-19T00:02:21;44.33;;;41.43;;
16731;SDS011;8484;50.904;9.192;2023-04-19T00:04:49;44.00;;;41.10;;
16731;SDS011;8484;50.904;9.192;2023-04-19T00:07:17;45.67;;;42.47;;
16731;SDS011;8484;50.904;9.192;2023-04-19T00:09:44;46.07;;;42.93;;
16731;SDS011;8484;50.904;9.192;2023-04-19T00:12:11;46.00;;;42.97;;
16731;SDS011;8484;50.904;9.192;2023-04-19T00:14:38;46.90;;;43.57;;
16731;SDS011;8484;50.904;9.192;2023-04-19T00:17:04;47.20;;;43.87;;
16731;SDS011;8484;50.904;9.192;2023-04-19T00:19:33;46.63;;;43.43;;
16731;SDS011;8484;50.904;9.192;2023-04-19T00:21:59;48.43;;;45.23;;
16731;SDS011;8484;50.904;9.192;2023-04-19T00:24:26;47.23;;;43.93;;
16731;SDS011;8484;50.904;9.192;2023-04-19T00:26:53;47.50;;;44.30;;
16731;SDS011;8484;50.904;9.192;2023-04-19T00:29:21;47.43;;;44.23;;
16731;SDS011;8484;50.904;9.192;2023-04-19T00:31:48;45.57;;;42.57;;
16731;SDS011;8484;50.904;9.192;2023-04-19T00:34:15;44.17;;;41.07;;
16731;SDS011;8484;50.904;9.192;2023-04-19T00:36:43;44.60;;;41.60;;
16731;SDS011;8484;50.904;9.192;2023-04-19T00:39:10;44.63;;;41.43;;
16731;SDS011;8484;50.904;9.192;2023-04-19T00:41:37;44.27;;;41.07;;
16731;SDS011;8484;50.904;9.192;2023-04-19T00:44:04;43.00;;;40.00;;
16731;SDS011;8484;50.904;9.192;2023-04-19T00:46:31;43.40;;;40.30;;
16731;SDS011;8484;50.904;9.192;2023-04-19T00:48:58;42.60;;;39.67;;
16731;SDS011;8484;50.904;9.192;2023-04-19T00:51:25;42.13;;;39.33;;
16731;SDS011;8484;50.904;9.192;2023-04-19T00:53:53;42.20;;;39.20;;
16731;SDS011;8484;50.904;9.192;2023-04-19T00:56:21;40.63;;;37.83;;
16731;SDS011;8484;50.904;9.192;2023-04-19T00:58:49;40.50;;;37.80;;
16731;SDS011;8484;50.904;9.192;2023-04-19T01:01:16;39.10;;;36.50;;
16731;SDS011;8484;50.904;9.192;2023-04-19T01:03:44;38.87;;;36.27;;
16731;SDS011;8484;50.904;9.192;2023-04-19T01:06:12;37.63;;;35.20;;
16731;SDS011;8484;50.904;9.192;2023-04-19T01:08:39;39.53;;;36.73;;
16731;SDS011;8484;50.904;9.192;2023-04-19T01:11:07;37.53;;;35.03;;
16731;SDS011;8484;50.904;9.192;2023-04-19T01:13:34;36.30;;;33.80;;
16731;SDS011;8484;50.904;9.192;2023-04-19T01:16:01;35.27;;;32.87;;
16731;SDS011;8484;50.904;9.192;2023-04-19T01:18:28;35.37;;;32.90;;
16731;SDS011;8484;50.904;9.192;2023-04-19T01:21:01;37.23;;;34.37;;
16731;SDS011;8484;50.904;9.192;2023-04-19T01:23:29;35.57;;;33.17;;
16731;SDS011;8484;50.904;9.192;2023-04-19T01:25:56;35.27;;;32.87;;
16731;SDS011;8484;50.904;9.192;2023-04-19T01:28:25;35.93;;;33.43;;
16731;SDS011;8484;50.904;9.192;2023-04-19T01:30:52;35.97;;;33.37;;
16731;SDS011;8484;50.904;9.192;2023-04-19T01:33:19;35.33;;;32.93;;
16731;SDS011;8484;50.904;9.192;2023-04-19T01:35:46;35.23;;;32.73;;
16731;SDS011;8484;50.904;9.192;2023-04-19T01:38:12;35.17;;;32.73;;
16731;SDS011;8484;50.904;9.192;2023-04-19T01:40:41;34.43;;;32.13;;
16731;SDS011;8484;50.904;9.192;2023-04-19T01:43:10;33.93;;;31.53;;
16731;SDS011;8484;50.904;9.192;2023-04-19T01:45:38;33.40;;;31.07;;
16731;SDS011;8484;50.904;9.192;2023-04-19T01:48:05;33.13;;;30.77;;
16731;SDS011;8484;50.904;9.192;2023-04-19T01:50:32;32.93;;;30.73;;
16731;SDS011;8484;50.904;9.192;2023-04-19T01:53:00;31.60;;;29.30;;
16731;SDS011;8484;50.904;9.192;2023-04-19T01:55:28;31.53;;;29.33;;
16731;SDS011;8484;50.904;9.192;2023-04-19T01:57:57;31.93;;;29.73;;
16731;SDS011;8484;50.904;9.192;2023-04-19T02:00:24;31.60;;;29.40;;
16731;SDS011;8484;50.904;9.192;2023-04-19T02:02:51;31.23;;;29.03;;
16731;SDS011;8484;50.904;9.192;2023-04-19T02:05:17;32.13;;;29.93;;
16731;SDS011;8484;50.904;9.192;2023-04-19T02:07:45;33.13;;;30.67;;
16731;SDS011;8484;50.904;9.192;2023-04-19T02:10:12;31.30;;;28.90;;
16731;SDS011;8484;50.904;9.192;2023-04-19T02:12:39;31.23;;;29.03;;
16731;SDS011;8484;50.904;9.192;2023-04-19T02:15:08;30.60;;;28.30;;
16731;SDS011;8484;50.904;9.192;2023-04-19T02:17:35;30.73;;;28.63;;
16731;SDS011;8484;50.904;9.192;2023-04-19T02:20:03;30.47;;;28.27;;
16731;SDS011;8484;50.904;9.192;2023-04-19T02:22:32;30.17;;;28.13;;
16731;SDS011;8484;50.904;9.192;2023-04-19T02:24:59;28.67;;;26.57;;
16731;SDS011;8484;50.904;9.192;2023-04-19T02:27:26;28.90;;;27.00;;
16731;SDS011;8484;50.904;9.192;2023-04-19T02:29:53;27.30;;;25.40;;
16731;SDS011;8484;50.904;9.192;2023-04-19T02:32:21;28.40;;;26.30;;
16731;SDS011;8484;50.904;9.192;2023-04-19T02:34:48;27.00;;;25.20;;
16731;SDS011;8484;50.904;9.192;2023-04-19T02:37:16;25.87;;;24.07;;
16731;SDS011;8484;50.904;9.192;2023-04-19T02:39:43;25.40;;;23.60;;
16731;SDS011;8484;50.904;9.192;2023-04-19T02:42:10;25.40;;;23.60;;
16731;SDS011;8484;50.904;9.192;2023-04-19T02:44:37;24.20;;;22.60;;
16731;SDS011;8484;50.904;9.192;2023-04-19T02:47:04;23.80;;;22.30;;
16731;SDS011;8484;50.904;9.192;2023-04-19T02:52:05;21.20;;;19.90;;
16731;SDS011;8484;50.904;9.192;2023-04-19T02:54:32;20.83;;;19.53;;
16731;SDS011;8484;50.904;9.192;2023-04-19T02:57:00;22.00;;;20.60;;
16731;SDS011;8484;50.904;9.192;2023-04-19T02:59:27;20.80;;;19.50;;
16731;SDS011;8484;50.904;9.192;2023-04-19T03:01:53;20.97;;;19.67;;
16731;SDS011;8484;50.904;9.192;2023-04-19T03:04:23;20.73;;;19.33;;
16731;SDS011;8484;50.904;9.192;2023-04-19T03:06:51;20.63;;;19.33;;
16731;SDS011;8484;50.904;9.192;2023-04-19T03:09:18;21.43;;;19.87;;
16731;SDS011;8484;50.904;9.192;2023-04-19T03:11:45;21.10;;;19.80;;
16731;SDS011;8484;50.904;9.192;2023-04-19T03:14:12;19.40;;;18.10;;
16731;SDS011;8484;50.904;9.192;2023-04-19T03:16:39;20.73;;;19.40;;
16731;SDS011;8484;50.904;9.192;2023-04-19T03:19:06;20.00;;;18.77;;
16731;SDS011;8484;50.904;9.192;2023-04-19T03:21:33;20.00;;;18.70;;
16731;SDS011;8484;50.904;9.192;2023-04-19T03:24:01;19.03;;;17.83;;
16731;SDS011;8484;50.904;9.192;2023-04-19T03:26:29;19.10;;;17.90;;
16731;SDS011;8484;50.904;9.192;2023-04-19T03:28:55;19.07;;;17.87;;
16731;SDS011;8484;50.904;9.192;2023-04-19T03:31:23;19.27;;;17.97;;
16731;SDS011;8484;50.904;9.192;2023-04-19T03:33:50;18.97;;;17.77;;
16731;SDS011;8484;50.904;9.192;2023-04-19T03:36:17;18.07;;;16.87;;
16731;SDS011;8484;50.904;9.192;2023-04-19T03:38:43;18.10;;;16.70;;
16731;SDS011;8484;50.904;9.192;2023-04-19T03:41:18;18.10;;;16.97;;
16731;SDS011;8484;50.904;9.192;2023-04-19T03:43:45;16.70;;;15.70;;
16731;SDS011;8484;50.904;9.192;2023-04-19T03:46:13;16.97;;;15.87;;
16731;SDS011;8484;50.904;9.192;2023-04-19T03:48:40;16.50;;;15.50;;
16731;SDS011;8484;50.904;9.192;2023-04-19T03:51:07;16.00;;;15.00;;
16731;SDS011;8484;50.904;9.192;2023-04-19T03:53:34;15.70;;;14.60;;
16731;SDS011;8484;50.904;9.192;2023-04-19T03:56:01;15.10;;;14.20;;
16731;SDS011;8484;50.904;9.192;2023-04-19T03:58:29;14.80;;;13.80;;
16731;SDS011;8484;50.904;9.192;2023-04-19T04:00:57;13.80;;;12.90;;
16731;SDS011;8484;50.904;9.192;2023-04-19T04:03:25;14.00;;;13.10;;
16731;SDS011;8484;50.904;9.192;2023-04-19T04:05:52;13.67;;;12.87;;
16731;SDS011;8484;50.904;9.192;2023-04-19T04:08:19;13.47;;;12.57;;
16731;SDS011;8484;50.904;9.192;2023-04-19T04:10:46;13.80;;;12.80;;
16731;SDS011;8484;50.904;9.192;2023-04-19T04:13:12;13.80;;;12.90;;
16731;SDS011;8484;50.904;9.192;2023-04-19T04:15:41;13.60;;;12.80;;
16731;SDS011;8484;50.904;9.192;2023-04-19T04:18:07;13.80;;;12.90;;
16731;SDS011;8484;50.904;9.192;2023-04-19T04:20:34;13.73;;;12.83;;
16731;SDS011;8484;50.904;9.192;2023-04-19T04:23:01;13.73;;;12.73;;
16731;SDS011;8484;50.904;9.192;2023-04-19T04:25:28;13.63;;;12.77;;
16731;SDS011;8484;50.904;9.192;2023-04-19T04:27:57;13.20;;;12.27;;
16731;SDS011;8484;50.904;9.192;2023-04-19T04:30:24;13.40;;;12.60;;
16731;SDS011;8484;50.904;9.192;2023-04-19T04:32:54;13.33;;;12.43;;
16731;SDS011;8484;50.904;9.192;2023-04-19T04:35:23;13.27;;;12.37;;
16731;SDS011;8484;50.904;9.192;2023-04-19T04:37:50;13.13;;;12.23;;
16731;SDS011;8484;50.904;9.192;2023-04-19T04:40:18;13.17;;;12.27;;
16731;SDS011;8484;50.904;9.192;2023-04-19T04:42:45;13.10;;;12.20;;
16731;SDS011;8484;50.904;9.192;2023-04-19T04:45:12;13.20;;;12.40;;
16731;SDS011;8484;50.904;9.192;2023-04-19T04:47:42;12.67;;;11.87;;
16731;SDS011;8484;50.904;9.192;2023-04-19T04:50:11;13.10;;;12.30;;
16731;SDS011;8484;50.904;9.192;2023-04-19T04:52:38;12.97;;;12.07;;
16731;SDS011;8484;50.904;9.192;2023-04-19T04:55:05;12.80;;;12.00;;
16731;SDS011;8484;50.904;9.192;2023-04-19T04:57:33;13.20;;;12.40;;
16731;SDS011;8484;50.904;9.192;2023-04-19T05:00:00;13.53;;;12.67;;
16731;SDS011;8484;50.904;9.192;2023-04-19T05:02:29;12.80;;;12.00;;
16731;SDS011;8484;50.904;9.192;2023-04-19T05:04:55;12.87;;;12.00;;
16731;SDS011;8484;50.904;9.192;2023-04-19T05:07:24;13.07;;;12.17;;
16731;SDS011;8484;50.904;9.192;2023-04-19T05:09:50;13.23;;;12.30;;
16731;SDS011;8484;50.904;9.192;2023-04-19T05:12:17;13.77;;;12.77;;
16731;SDS011;8484;50.904;9.192;2023-04-19T05:14:44;13.17;;;12.33;;
16731;SDS011;8484;50.904;9.192;2023-04-19T05:17:11;13.57;;;12.67;;
16731;SDS011;8484;50.904;9.192;2023-04-19T05:19:38;13.67;;;12.67;;
16731;SDS011;8484;50.904;9.192;2023-04-19T05:22:05;13.50;;;12.60;;
16731;SDS011;8484;50.904;9.192;2023-04-19T05:24:33;13.53;;;12.73;;
16731;SDS011;8484;50.904;9.192;2023-04-19T05:27:02;14.10;;;13.10;;
16731;SDS011;8484;50.904;9.192;2023-04-19T05:29:30;13.97;;;12.87;;
16731;SDS011;8484;50.904;9.192;2023-04-19T05:31:57;13.60;;;12.60;;
16731;SDS011;8484;50.904;9.192;2023-04-19T05:34:24;13.40;;;12.50;;
16731;SDS011;8484;50.904;9.192;2023-04-19T05:36:51;13.00;;;12.10;;
16731;SDS011;8484;50.904;9.192;2023-04-19T05:39:18;12.67;;;11.80;;
16731;SDS011;8484;50.904;9.192;2023-04-19T05:41:46;13.03;;;12.03;;
16731;SDS011;8484;50.904;9.192;2023-04-19T05:44:13;13.17;;;12.27;;
16731;SDS011;8484;50.904;9.192;2023-04-19T05:46:40;13.00;;;12.20;;
16731;SDS011;8484;50.904;9.192;2023-04-19T05:49:07;12.80;;;11.90;;
16731;SDS011;8484;50.904;9.192;2023-04-19T05:51:33;12.60;;;11.70;;
16731;SDS011;8484;50.904;9.192;2023-04-19T05:54:00;12.40;;;11.60;;
16731;SDS011;8484;50.904;9.192;2023-04-19T05:56:27;12.90;;;12.00;;
16731;SDS011;8484;50.904;9.192;2023-04-19T05:58:56;12.40;;;11.50;;
16731;SDS011;8484;50.904;9.192;2023-04-19T06:01:25;11.90;;;11.10;;
16731;SDS011;8484;50.904;9.192;2023-04-19T06:03:51;11.83;;;10.90;;
16731;SDS011;8484;50.904;9.192;2023-04-19T06:06:20;11.57;;;10.77;;
16731;SDS011;8484;50.904;9.192;2023-04-19T06:08:47;11.03;;;10.33;;
16731;SDS011;8484;50.904;9.192;2023-04-19T06:11:14;11.33;;;10.53;;
16731;SDS011;8484;50.904;9.192;2023-04-19T06:13:41;11.37;;;10.50;;
16731;SDS011;8484;50.904;9.192;2023-04-19T06:16:10;11.40;;;10.63;;
16731;SDS011;8484;50.904;9.192;2023-04-19T06:18:37;10.77;;;9.97;;
16731;SDS011;8484;50.904;9.192;2023-04-19T06:21:05;10.47;;;9.70;;
16731;SDS011;8484;50.904;9.192;2023-04-19T06:23:31;10.13;;;9.43;;
16731;SDS011;8484;50.904;9.192;2023-04-19T06:25:58;10.10;;;9.40;;
16731;SDS011;8484;50.904;9.192;2023-04-19T06:28:25;10.37;;;9.57;;
16731;SDS011;8484;50.904;9.192;2023-04-19T06:30:53;10.43;;;9.60;;
16731;SDS011;8484;50.904;9.192;2023-04-19T06:33:21;9.93;;;9.23;;
16731;SDS011;8484;50.904;9.192;2023-04-19T06:35:48;10.43;;;9.73;;
16731;SDS011;8484;50.904;9.192;2023-04-19T06:38:15;10.20;;;9.50;;
16731;SDS011;8484;50.904;9.192;2023-04-19T06:40:42;9.67;;;9.00;;
16731;SDS011;8484;50.904;9.192;2023-04-19T06:43:10;10.20;;;9.50;;
16731;SDS011;8484;50.904;9.192;2023-04-19T06:45:37;10.47;;;9.77;;
16731;SDS011;8484;50.904;9.192;2023-04-19T06:48:04;10.33;;;9.63;;
16731;SDS011;8484;50.904;9.192;2023-04-19T06:50:32;9.87;;;9.17;;
16731;SDS011;8484;50.904;9.192;2023-04-19T06:52:59;9.93;;;9.13;;
16731;SDS011;8484;50.904;9.192;2023-04-19T06:55:26;10.03;;;9.33;;
16731;SDS011;8484;50.904;9.192;2023-04-19T06:57:54;10.13;;;9.43;;
16731;SDS011;8484;50.904;9.192;2023-04-19T07:00:21;10.30;;;9.50;;
16731;SDS011;8484;50.904;9.192;2023-04-19T07:02:48;10.33;;;9.50;;
16731;SDS011;8484;50.904;9.192;2023-04-19T07:05:16;10.30;;;9.50;;
16731;SDS011;8484;50.904;9.192;2023-04-19T07:07:45;9.50;;;8.90;;
16731;SDS011;8484;50.904;9.192;2023-04-19T07:10:12;10.03;;;9.33;;
16731;SDS011;8484;50.904;9.192;2023-04-19T07:12:39;9.93;;;9.23;;
16731;SDS011;8484;50.904;9.192;2023-04-19T07:15:07;10.30;;;9.30;;
16731;SDS011;8484;50.904;9.192;2023-04-19T07:17:36;10.27;;;9.57;;
16731;SDS011;8484;50.904;9.192;2023-04-19T07:20:03;9.97;;;9.27;;
16731;SDS011;8484;50.904;9.192;2023-04-19T07:22:31;9.13;;;8.53;;
16731;SDS011;8484;50.904;9.192;2023-04-19T07:24:59;9.47;;;8.77;;
16731;SDS011;8484;50.904;9.192;2023-04-19T07:27:26;9.00;;;8.40;;
16731;SDS011;8484;50.904;9.192;2023-04-19T07:29:53;8.83;;;8.23;;
16731;SDS011;8484;50.904;9.192;2023-04-19T07:32:20;9.30;;;8.70;;
16731;SDS011;8484;50.904;9.192;2023-04-19T07:34:47;9.37;;;8.57;;
16731;SDS011;8484;50.904;9.192;2023-04-19T07:37:15;9.30;;;8.50;;
16731;SDS011;8484;50.904;9.192;2023-04-19T07:39:42;8.90;;;8.30;;
16731;SDS011;8484;50.904;9.192;2023-04-19T07:42:11;8.93;;;8.33;;
16731;SDS011;8484;50.904;9.192;2023-04-19T07:44:37;8.50;;;7.80;;
16731;SDS011;8484;50.904;9.192;2023-04-19T07:47:04;8.67;;;8.07;;
16731;SDS011;8484;50.904;9.192;2023-04-19T07:49:31;8.10;;;7.30;;
16731;SDS011;8484;50.904;9.192;2023-04-19T07:51:59;7.83;;;7.27;;
16731;SDS011;8484;50.904;9.192;2023-04-19T07:54:26;7.50;;;6.90;;
16731;SDS011;8484;50.904;9.192;2023-04-19T07:56:54;11.57;;;7.10;;
16731;SDS011;8484;50.904;9.192;2023-04-19T07:59:23;8.00;;;7.40;;
16731;SDS011;8484;50.904;9.192;2023-04-19T08:01:50;8.23;;;7.53;;
16731;SDS011;8484;50.904;9.192;2023-04-19T08:04:16;7.57;;;7.13;;
16731;SDS011;8484;50.904;9.192;2023-04-19T08:06:44;8.27;;;7.67;;
16731;SDS011;8484;50.904;9.192;2023-04-19T08:09:11;7.63;;;7.07;;
16731;SDS011;8484;50.904;9.192;2023-04-19T08:11:38;8.37;;;7.67;;
16731;SDS011;8484;50.904;9.192;2023-04-19T08:14:05;7.30;;;6.80;;
16731;SDS011;8484;50.904;9.192;2023-04-19T08:16:35;7.27;;;6.70;;
16731;SDS011;8484;50.904;9.192;2023-04-19T08:19:02;7.30;;;5.83;;
16731;SDS011;8484;50.904;9.192;2023-04-19T08:21:29;6.03;;;5.63;;
16731;SDS011;8484;50.904;9.192;2023-04-19T08:23:56;6.17;;;5.60;;
16731;SDS011;8484;50.904;9.192;2023-04-19T08:26:23;6.30;;;5.90;;
16731;SDS011;8484;50.904;9.192;2023-04-19T08:28:50;6.30;;;5.80;;
16731;SDS011;8484;50.904;9.192;2023-04-19T08:31:17;5.83;;;5.43;;
16731;SDS011;8484;50.904;9.192;2023-04-19T08:33:48;5.60;;;5.30;;
16731;SDS011;8484;50.904;9.192;2023-04-19T08:36:15;5.90;;;5.50;;
16731;SDS011;8484;50.904;9.192;2023-04-19T08:38:42;6.03;;;5.43;;
16731;SDS011;8484;50.904;9.192;2023-04-19T08:41:10;6.07;;;5.30;;
16731;SDS011;8484;50.904;9.192;2023-04-19T08:43:37;7.30;;;5.37;;
16731;SDS011;8484;50.904;9.192;2023-04-19T08:46:04;5.70;;;5.30;;
16731;SDS011;8484;50.904;9.192;2023-04-19T08:48:32;5.53;;;5.13;;
16731;SDS011;8484;50.904;9.192;2023-04-19T08:51:02;5.47;;;5.07;;
16731;SDS011;8484;50.904;9.192;2023-04-19T08:53:29;5.37;;;4.97;;
16731;SDS011;8484;50.904;9.192;2023-04-19T08:55:58;5.47;;;5.07;;
16731;SDS011;8484;50.904;9.192;2023-04-19T08:58:26;5.50;;;5.10;;
16731;SDS011;8484;50.904;9.192;2023-04-19T09:00:57;5.00;;;4.70;;
16731;SDS011;8484;50.904;9.192;2023-04-19T09:03:24;5.70;;;5.30;;
16731;SDS011;8484;50.904;9.192;2023-04-19T09:05:51;5.27;;;4.87;;
16731;SDS011;8484;50.904;9.192;2023-04-19T09:08:23;5.23;;;4.70;;
16731;SDS011;8484;50.904;9.192;2023-04-19T09:10:52;5.97;;;4.97;;
16731;SDS011;8484;50.904;9.192;2023-04-19T09:13:20;5.40;;;5.10;;
16731;SDS011;8484;50.904;9.192;2023-04-19T09:15:47;5.30;;;5.00;;
16731;SDS011;8484;50.904;9.192;2023-04-19T09:18:15;5.37;;;4.90;;
16731;SDS011;8484;50.904;9.192;2023-04-19T09:20:44;4.93;;;4.53;;
16731;SDS011;8484;50.904;9.192;2023-04-19T09:23:12;4.97;;;4.57;;
16731;SDS011;8484;50.904;9.192;2023-04-19T09:25:50;5.53;;;4.93;;
16731;SDS011;8484;50.904;9.192;2023-04-19T09:28:19;5.60;;;5.17;;
16731;SDS011;8484;50.904;9.192;2023-04-19T09:30:46;5.20;;;4.73;;
16731;SDS011;8484;50.904;9.192;2023-04-19T09:33:30;5.50;;;5.00;;
16731;SDS011;8484;50.904;9.192;2023-04-19T09:36:01;4.83;;;4.53;;
16731;SDS011;8484;50.904;9.192;2023-04-19T09:38:28;4.87;;;4.57;;
16731;SDS011;8484;50.904;9.192;2023-04-19T09:41:06;5.40;;;4.40;;
16731;SDS011;8484;50.904;9.192;2023-04-19T09:43:34;4.70;;;4.40;;
16731;SDS011;8484;50.904;9.192;2023-04-19T09:46:01;5.00;;;4.60;;
16731;SDS011;8484;50.904;9.192;2023-04-19T09:48:29;4.53;;;4.20;;
16731;SDS011;8484;50.904;9.192;2023-04-19T09:50:57;4.67;;;4.33;;
16731;SDS011;8484;50.904;9.192;2023-04-19T09:53:25;4.80;;;4.50;;
16731;SDS011;8484;50.904;9.192;2023-04-19T09:55:53;4.80;;;4.40;;
16731;SDS011;8484;50.904;9.192;2023-04-19T09:58:21;4.70;;;4.30;;
16731;SDS011;8484;50.904;9.192;2023-04-19T10:00:49;4.50;;;4.20;;
16731;SDS011;8484;50.904;9.192;2023-04-19T10:03:17;4.80;;;4.50;;
16731;SDS011;8484;50.904;9.192;2023-04-19T10:05:46;4.90;;;4.40;;
16731;SDS011;8484;50.904;9.192;2023-04-19T10:08:13;5.40;;;5.00;;
16731;SDS011;8484;50.904;9.192;2023-04-19T10:10:41;4.67;;;4.27;;
16731;SDS011;8484;50.904;9.192;2023-04-19T10:13:10;4.60;;;4.30;;
16731;SDS011;8484;50.904;9.192;2023-04-19T10:15:40;4.73;;;4.33;;
16731;SDS011;8484;50.904;9.192;2023-04-19T10:18:09;4.70;;;4.40;;
16731;SDS011;8484;50.904;9.192;2023-04-19T10:20:37;4.93;;;4.57;;
16731;SDS011;8484;50.904;9.192;2023-04-19T10:23:09;5.10;;;4.70;;
16731;SDS011;8484;50.904;9.192;2023-04-19T10:25:36;4.80;;;4.50;;
16731;SDS011;8484;50.904;9.192;2023-04-19T10:28:03;5.00;;;4.50;;
16731;SDS011;8484;50.904;9.192;2023-04-19T10:30:31;4.83;;;4.30;;
16731;SDS011;8484;50.904;9.192;2023-04-19T10:32:59;4.77;;;4.47;;
16731;SDS011;8484;50.904;9.192;2023-04-19T10:35:33;4.80;;;4.50;;
16731;SDS011;8484;50.904;9.192;2023-04-19T10:38:03;5.10;;;4.70;;
16731;SDS011;8484;50.904;9.192;2023-04-19T10:43:21;4.67;;;4.37;;
16731;SDS011;8484;50.904;9.192;2023-04-19T10:45:49;4.77;;;4.47;;
16731;SDS011;8484;50.904;9.192;2023-04-19T10:48:37;4.43;;;4.03;;
16731;SDS011;8484;50.904;9.192;2023-04-19T10:51:10;4.60;;;4.23;;
16731;SDS011;8484;50.904;9.192;2023-04-19T10:53:43;4.60;;;4.30;;
16731;SDS011;8484;50.904;9.192;2023-04-19T10:56:15;4.77;;;4.43;;
16731;SDS011;8484;50.904;9.192;2023-04-19T11:01:45;4.53;;;4.13;;
16731;SDS011;8484;50.904;9.192;2023-04-19T11:04:15;4.77;;;4.47;;
16731;SDS011;8484;50.904;9.192;2023-04-19T11:06:56;4.40;;;4.10;;
16731;SDS011;8484;50.904;9.192;2023-04-19T11:09:26;4.73;;;4.43;;
16731;SDS011;8484;50.904;9.192;2023-04-19T11:11:57;4.60;;;4.30;;
16731;SDS011;8484;50.904;9.192;2023-04-19T11:14:27;5.23;;;4.30;;
16731;SDS011;8484;50.904;9.192;2023-04-19T11:16:57;5.07;;;4.67;;
16731;SDS011;8484;50.904;9.192;2023-04-19T11:19:26;4.60;;;4.30;;
16731;SDS011;8484;50.904;9.192;2023-04-19T11:21:53;5.20;;;4.30;;
16731;SDS011;8484;50.904;9.192;2023-04-19T11:24:25;4.50;;;4.20;;
16731;SDS011;8484;50.904;9.192;2023-04-19T11:26:52;4.20;;;4.00;;
16731;SDS011;8484;50.904;9.192;2023-04-19T11:29:22;4.77;;;4.47;;
16731;SDS011;8484;50.904;9.192;2023-04-19T11:31:48;4.63;;;4.30;;
16731;SDS011;8484;50.904;9.192;2023-04-19T11:34:15;4.83;;;4.53;;
16731;SDS011;8484;50.904;9.192;2023-04-19T11:36:51;4.30;;;4.10;;
16731;SDS011;8484;50.904;9.192;2023-04-19T11:39:18;5.00;;;4.60;;
16731;SDS011;8484;50.904;9.192;2023-04-19T11:41:45;4.37;;;4.07;;
16731;SDS011;8484;50.904;9.192;2023-04-19T11:44:13;4.47;;;4.17;;
16731;SDS011;8484;50.904;9.192;2023-04-19T11:46:40;4.50;;;4.20;;
16731;SDS011;8484;50.904;9.192;2023-04-19T11:49:07;4.50;;;4.10;;
16731;SDS011;8484;50.904;9.192;2023-04-19T11:51:34;4.80;;;4.40;;
16731;SDS011;8484;50.904;9.192;2023-04-19T11:54:12;4.90;;;4.53;;
16731;SDS011;8484;50.904;9.192;2023-04-19T11:59:31;4.73;;;4.43;;
16731;SDS011;8484;50.904;9.192;2023-04-19T12:02:04;4.87;;;4.47;;
16731;SDS011;8484;50.904;9.192;2023-04-19T12:04:34;4.83;;;4.53;;
16731;SDS011;8484;50.904;9.192;2023-04-19T12:07:02;5.20;;;4.63;;
16731;SDS011;8484;50.904;9.192;2023-04-19T12:09:33;4.77;;;4.47;;
16731;SDS011;8484;50.904;9.192;2023-04-19T12:12:05;4.90;;;4.60;;
16731;SDS011;8484;50.904;9.192;2023-04-19T12:14:32;5.57;;;5.17;;
16731;SDS011;8484;50.904;9.192;2023-04-19T12:17:06;4.87;;;4.47;;
16731;SDS011;8484;50.904;9.192;2023-04-19T12:19:35;4.90;;;4.53;;
16731;SDS011;8484;50.904;9.192;2023-04-19T12:22:09;5.00;;;4.70;;
16731;SDS011;8484;50.904;9.192;2023-04-19T12:24:39;4.80;;;4.33;;
16731;SDS011;8484;50.904;9.192;2023-04-19T12:27:07;4.77;;;4.40;;
16731;SDS011;8484;50.904;9.192;2023-04-19T12:29:35;4.80;;;4.50;;
16731;SDS011;8484;50.904;9.192;2023-04-19T12:32:03;4.90;;;4.50;;
16731;SDS011;8484;50.904;9.192;2023-04-19T12:34:31;4.77;;;4.37;;
16731;SDS011;8484;50.904;9.192;2023-04-19T12:36:58;4.70;;;4.30;;
16731;SDS011;8484;50.904;9.192;2023-04-19T12:39:25;4.73;;;4.43;;
16731;SDS011;8484;50.904;9.192;2023-04-19T12:41:54;5.27;;;4.77;;
16731;SDS011;8484;50.904;9.192;2023-04-19T12:44:21;4.80;;;4.50;;
16731;SDS011;8484;50.904;9.192;2023-04-19T12:46:48;4.80;;;4.50;;
16731;SDS011;8484;50.904;9.192;2023-04-19T12:49:16;4.77;;;4.47;;
16731;SDS011;8484;50.904;9.192;2023-04-19T12:51:43;4.77;;;4.47;;
16731;SDS011;8484;50.904;9.192;2023-04-19T12:54:11;5.17;;;4.63;;
16731;SDS011;8484;50.904;9.192;2023-04-19T12:56:38;4.70;;;4.40;;
16731;SDS011;8484;50.904;9.192;2023-04-19T12:59:07;5.07;;;4.67;;
16731;SDS011;8484;50.904;9.192;2023-04-19T13:01:33;5.10;;;4.70;;
16731;SDS011;8484;50.904;9.192;2023-04-19T13:04:00;5.00;;;4.70;;
16731;SDS011;8484;50.904;9.192;2023-04-19T13:06:28;5.90;;;4.60;;
16731;SDS011;8484;50.904;9.192;2023-04-19T13:08:55;4.90;;;4.60;;
16731;SDS011;8484;50.904;9.192;2023-04-19T13:11:22;5.13;;;4.73;;
16731;SDS011;8484;50.904;9.192;2023-04-19T13:13:49;5.00;;;4.70;;
16731;SDS011;8484;50.904;9.192;2023-04-19T13:16:18;4.80;;;4.50;;
16731;SDS011;8484;50.904;9.192;2023-04-19T13:18:46;16.20;;;5.90;;
16731;SDS011;8484;50.904;9.192;2023-04-19T13:21:13;5.67;;;4.77;;
16731;SDS011;8484;50.904;9.192;2023-04-19T13:23:41;4.90;;;4.60;;
16731;SDS011;8484;50.904;9.192;2023-04-19T13:26:09;5.40;;;4.97;;
16731;SDS011;8484;50.904;9.192;2023-04-19T13:28:36;5.20;;;4.70;;
16731;SDS011;8484;50.904;9.192;2023-04-19T13:31:04;4.97;;;4.57;;
16731;SDS011;8484;50.904;9.192;2023-04-19T13:33:34;5.30;;;4.93;;
16731;SDS011;8484;50.904;9.192;2023-04-19T13:36:01;4.57;;;4.27;;
16731;SDS011;8484;50.904;9.192;2023-04-19T13:38:29;5.23;;;4.90;;
16731;SDS011;8484;50.904;9.192;2023-04-19T13:40:56;5.37;;;4.87;;
16731;SDS011;8484;50.904;9.192;2023-04-19T13:43:22;5.00;;;4.70;;
16731;SDS011;8484;50.904;9.192;2023-04-19T13:45:49;5.07;;;4.57;;
16731;SDS011;8484;50.904;9.192;2023-04-19T13:48:16;5.77;;;4.80;;
16731;SDS011;8484;50.904;9.192;2023-04-19T13:50:45;6.23;;;4.90;;
16731;SDS011;8484;50.904;9.192;2023-04-19T13:53:11;5.70;;;5.23;;
16731;SDS011;8484;50.904;9.192;2023-04-19T13:55:38;5.70;;;5.20;;
16731;SDS011;8484;50.904;9.192;2023-04-19T13:58:05;4.87;;;4.57;;
16731;SDS011;8484;50.904;9.192;2023-04-19T14:00:33;4.93;;;4.53;;
16731;SDS011;8484;50.904;9.192;2023-04-19T14:03:00;5.50;;;5.10;;
16731;SDS011;8484;50.904;9.192;2023-04-19T14:05:26;5.23;;;4.73;;
16731;SDS011;8484;50.904;9.192;2023-04-19T14:07:55;5.57;;;5.07;;
16731;SDS011;8484;50.904;9.192;2023-04-19T14:10:22;7.17;;;4.50;;
16731;SDS011;8484;50.904;9.192;2023-04-19T14:12:49;4.87;;;4.50;;
16731;SDS011;8484;50.904;9.192;2023-04-19T14:15:16;4.97;;;4.67;;
16731;SDS011;8484;50.904;9.192;2023-04-19T14:17:43;5.97;;;5.30;;
16731;SDS011;8484;50.904;9.192;2023-04-19T14:20:11;4.97;;;4.57;;
16731;SDS011;8484;50.904;9.192;2023-04-19T14:22:38;6.13;;;4.07;;
16731;SDS011;8484;50.904;9.192;2023-04-19T14:25:07;5.83;;;4.70;;
16731;SDS011;8484;50.904;9.192;2023-04-19T14:27:36;4.87;;;4.57;;
16731;SDS011;8484;50.904;9.192;2023-04-19T14:30:04;4.93;;;4.63;;
16731;SDS011;8484;50.904;9.192;2023-04-19T14:32:31;4.80;;;4.50;;
16731;SDS011;8484;50.904;9.192;2023-04-19T14:34:58;5.00;;;4.60;;
16731;SDS011;8484;50.904;9.192;2023-04-19T14:37:26;4.63;;;4.33;;
16731;SDS011;8484;50.904;9.192;2023-04-19T14:39:53;5.00;;;4.60;;
16731;SDS011;8484;50.904;9.192;2023-04-19T14:42:21;4.93;;;4.63;;
16731;SDS011;8484;50.904;9.192;2023-04-19T14:44:49;4.60;;;4.30;;
16731;SDS011;8484;50.904;9.192;2023-04-19T14:47:17;4.77;;;4.47;;
16731;SDS011;8484;50.904;9.192;2023-04-19T14:49:46;4.60;;;4.30;;
16731;SDS011;8484;50.904;9.192;2023-04-19T14:52:13;5.47;;;4.70;;
16731;SDS011;8484;50.904;9.192;2023-04-19T14:54:40;4.60;;;4.30;;
16731;SDS011;8484;50.904;9.192;2023-04-19T14:57:07;4.30;;;4.10;;
16731;SDS011;8484;50.904;9.192;2023-04-19T14:59:37;4.73;;;4.33;;
16731;SDS011;8484;50.904;9.192;2023-04-19T15:02:04;4.70;;;4.40;;
16731;SDS011;8484;50.904;9.192;2023-04-19T15:04:34;5.60;;;4.80;;